sensor_id;sensor_type;location;lat;lon;timestamp;P1;durP1;ratioP1;P2;durP2;ratioP2
57071;SDS011;42956;51.366;11.298;2023-05-29T00:01:57;7.20;;;4.05;;
57071;SDS011;42956;51.366;11.298;2023-05-29T00:04:27;9.25;;;4.22;;
57071;SDS011;42956;51.366;11.298;2023-05-29T00:07:00;6.57;;;4.10;;
57071;SDS011;42956;51.366;11.298;2023-05-29T00:09:30;11.05;;;4.03;;
57071;SDS011;42956;51.366;11.298;2023-05-29T00:12:00;7.80;;;4.65;;
57071;SDS011;42956;51.366;11.298;2023-05-29T00:14:29;12.02;;;4.63;;
57071;SDS011;42956;51.366;11.298;2023-05-29T00:16:59;9.30;;;5.07;;
57071;SDS011;42956;51.366;11.298;2023-05-29T00:19:30;10.38;;;4.80;;
57071;SDS011;42956;51.366;11.298;2023-05-29T00:22:02;7.35;;;4.68;;
57071;SDS011;42956;51.366;11.298;2023-05-29T00:24:32;8.05;;;4.82;;
57071;SDS011;42956;51.366;11.298;2023-05-29T00:27:02;9.68;;;4.88;;
57071;SDS011;42956;51.366;11.298;2023-05-29T00:29:32;8.55;;;4.43;;
57071;SDS011;42956;51.366;11.298;2023-05-29T00:32:03;10.85;;;6.22;;
57071;SDS011;42956;51.366;11.298;2023-05-29T00:34:33;10.48;;;6.65;;
57071;SDS011;42956;51.366;11.298;2023-05-29T00:37:06;10.70;;;6.22;;
57071;SDS011;42956;51.366;11.298;2023-05-29T00:39:36;9.60;;;5.30;;
57071;SDS011;42956;51.366;11.298;2023-05-29T00:42:06;11.90;;;4.32;;
57071;SDS011;42956;51.366;11.298;2023-05-29T00:44:35;6.30;;;4.32;;
57071;SDS011;42956;51.366;11.298;2023-05-29T00:47:05;7.93;;;4.47;;
57071;SDS011;42956;51.366;11.298;2023-05-29T00:49:36;9.77;;;4.35;;
57071;SDS011;42956;51.366;11.298;2023-05-29T00:52:09;10.30;;;3.70;;
57071;SDS011;42956;51.366;11.298;2023-05-29T00:54:42;7.07;;;3.97;;
57071;SDS011;42956;51.366;11.298;2023-05-29T00:57:12;13.77;;;4.47;;
57071;SDS011;42956;51.366;11.298;2023-05-29T00:59:43;7.85;;;4.25;;
57071;SDS011;42956;51.366;11.298;2023-05-29T01:02:13;8.13;;;4.53;;
57071;SDS011;42956;51.366;11.298;2023-05-29T01:04:45;9.00;;;4.13;;
57071;SDS011;42956;51.366;11.298;2023-05-29T01:07:17;9.30;;;4.65;;
57071;SDS011;42956;51.366;11.298;2023-05-29T01:09:49;8.85;;;4.47;;
57071;SDS011;42956;51.366;11.298;2023-05-29T01:12:23;8.57;;;4.30;;
57071;SDS011;42956;51.366;11.298;2023-05-29T01:15:00;8.52;;;4.43;;
57071;SDS011;42956;51.366;11.298;2023-05-29T01:17:32;7.85;;;4.00;;
57071;SDS011;42956;51.366;11.298;2023-05-29T01:20:13;5.50;;;4.38;;
57071;SDS011;42956;51.366;11.298;2023-05-29T01:23:06;8.65;;;4.43;;
57071;SDS011;42956;51.366;11.298;2023-05-29T01:25:43;10.38;;;3.95;;
57071;SDS011;42956;51.366;11.298;2023-05-29T01:28:19;8.98;;;4.18;;
57071;SDS011;42956;51.366;11.298;2023-05-29T01:30:50;12.23;;;5.05;;
57071;SDS011;42956;51.366;11.298;2023-05-29T01:33:21;13.57;;;4.82;;
57071;SDS011;42956;51.366;11.298;2023-05-29T01:35:51;8.05;;;4.40;;
57071;SDS011;42956;51.366;11.298;2023-05-29T01:38:21;9.30;;;4.30;;
57071;SDS011;42956;51.366;11.298;2023-05-29T01:40:50;9.07;;;4.40;;
57071;SDS011;42956;51.366;11.298;2023-05-29T01:43:24;10.95;;;4.55;;
57071;SDS011;42956;51.366;11.298;2023-05-29T01:45:54;10.77;;;4.32;;
57071;SDS011;42956;51.366;11.298;2023-05-29T01:48:24;13.40;;;4.88;;
57071;SDS011;42956;51.366;11.298;2023-05-29T01:50:54;6.38;;;4.22;;
57071;SDS011;42956;51.366;11.298;2023-05-29T01:53:25;7.10;;;4.47;;
57071;SDS011;42956;51.366;11.298;2023-05-29T01:55:54;6.93;;;4.10;;
57071;SDS011;42956;51.366;11.298;2023-05-29T01:58:27;13.40;;;4.57;;
57071;SDS011;42956;51.366;11.298;2023-05-29T02:00:57;13.05;;;4.32;;
57071;SDS011;42956;51.366;11.298;2023-05-29T02:03:27;9.85;;;3.88;;
57071;SDS011;42956;51.366;11.298;2023-05-29T02:05:57;13.93;;;4.10;;
57071;SDS011;42956;51.366;11.298;2023-05-29T02:08:27;12.40;;;4.35;;
57071;SDS011;42956;51.366;11.298;2023-05-29T02:10:57;6.63;;;3.80;;
57071;SDS011;42956;51.366;11.298;2023-05-29T02:13:30;19.55;;;4.82;;
57071;SDS011;42956;51.366;11.298;2023-05-29T02:15:59;9.80;;;4.65;;
57071;SDS011;42956;51.366;11.298;2023-05-29T02:18:29;11.00;;;3.67;;
57071;SDS011;42956;51.366;11.298;2023-05-29T02:21:01;15.68;;;4.22;;
57071;SDS011;42956;51.366;11.298;2023-05-29T02:23:31;10.55;;;4.90;;
57071;SDS011;42956;51.366;11.298;2023-05-29T02:26:01;8.27;;;3.92;;
57071;SDS011;42956;51.366;11.298;2023-05-29T02:28:34;10.93;;;4.78;;
57071;SDS011;42956;51.366;11.298;2023-05-29T02:31:04;14.30;;;4.78;;
57071;SDS011;42956;51.366;11.298;2023-05-29T02:33:34;16.55;;;4.82;;
57071;SDS011;42956;51.366;11.298;2023-05-29T02:36:04;10.25;;;3.92;;
57071;SDS011;42956;51.366;11.298;2023-05-29T02:38:37;11.65;;;4.05;;
57071;SDS011;42956;51.366;11.298;2023-05-29T02:41:07;12.27;;;4.30;;
57071;SDS011;42956;51.366;11.298;2023-05-29T02:43:40;6.55;;;4.07;;
57071;SDS011;42956;51.366;11.298;2023-05-29T02:46:09;14.88;;;4.30;;
57071;SDS011;42956;51.366;11.298;2023-05-29T02:51:12;8.95;;;4.07;;
57071;SDS011;42956;51.366;11.298;2023-05-29T02:53:42;12.02;;;4.30;;
57071;SDS011;42956;51.366;11.298;2023-05-29T02:56:12;9.60;;;4.50;;
57071;SDS011;42956;51.366;11.298;2023-05-29T02:58:45;11.07;;;4.15;;
57071;SDS011;42956;51.366;11.298;2023-05-29T03:01:15;11.02;;;4.78;;
57071;SDS011;42956;51.366;11.298;2023-05-29T03:03:44;9.73;;;4.60;;
57071;SDS011;42956;51.366;11.298;2023-05-29T03:06:14;14.75;;;4.90;;
57071;SDS011;42956;51.366;11.298;2023-05-29T03:08:45;12.38;;;5.20;;
57071;SDS011;42956;51.366;11.298;2023-05-29T03:11:15;10.80;;;4.57;;
57071;SDS011;42956;51.366;11.298;2023-05-29T03:13:47;7.10;;;4.50;;
57071;SDS011;42956;51.366;11.298;2023-05-29T03:16:17;13.88;;;4.72;;
57071;SDS011;42956;51.366;11.298;2023-05-29T03:18:48;9.90;;;4.72;;
57071;SDS011;42956;51.366;11.298;2023-05-29T03:21:18;9.95;;;4.68;;
57071;SDS011;42956;51.366;11.298;2023-05-29T03:23:48;7.72;;;4.50;;
57071;SDS011;42956;51.366;11.298;2023-05-29T03:26:18;11.35;;;4.20;;
57071;SDS011;42956;51.366;11.298;2023-05-29T03:28:51;12.20;;;4.97;;
57071;SDS011;42956;51.366;11.298;2023-05-29T03:31:21;13.55;;;5.20;;
57071;SDS011;42956;51.366;11.298;2023-05-29T03:33:51;7.70;;;3.78;;
57071;SDS011;42956;51.366;11.298;2023-05-29T03:36:21;8.93;;;3.75;;
57071;SDS011;42956;51.366;11.298;2023-05-29T03:38:51;8.95;;;4.05;;
57071;SDS011;42956;51.366;11.298;2023-05-29T03:41:20;10.32;;;4.60;;
57071;SDS011;42956;51.366;11.298;2023-05-29T03:43:53;11.25;;;5.28;;
57071;SDS011;42956;51.366;11.298;2023-05-29T03:46:23;12.30;;;4.72;;
57071;SDS011;42956;51.366;11.298;2023-05-29T03:48:54;10.65;;;4.45;;
57071;SDS011;42956;51.366;11.298;2023-05-29T03:51:24;9.73;;;4.18;;
57071;SDS011;42956;51.366;11.298;2023-05-29T03:53:54;8.95;;;4.10;;
57071;SDS011;42956;51.366;11.298;2023-05-29T03:56:24;14.13;;;5.15;;
57071;SDS011;42956;51.366;11.298;2023-05-29T03:58:56;9.68;;;4.93;;
57071;SDS011;42956;51.366;11.298;2023-05-29T04:01:26;9.48;;;3.90;;
57071;SDS011;42956;51.366;11.298;2023-05-29T04:03:56;9.68;;;4.45;;
57071;SDS011;42956;51.366;11.298;2023-05-29T04:06:26;11.73;;;4.80;;
57071;SDS011;42956;51.366;11.298;2023-05-29T04:08:56;9.88;;;3.95;;
57071;SDS011;42956;51.366;11.298;2023-05-29T04:11:26;12.50;;;4.25;;
57071;SDS011;42956;51.366;11.298;2023-05-29T04:13:59;13.43;;;4.53;;
57071;SDS011;42956;51.366;11.298;2023-05-29T04:16:29;8.43;;;3.97;;
57071;SDS011;42956;51.366;11.298;2023-05-29T04:18:59;16.90;;;5.38;;
57071;SDS011;42956;51.366;11.298;2023-05-29T04:21:29;15.70;;;4.78;;
57071;SDS011;42956;51.366;11.298;2023-05-29T04:23:59;12.93;;;4.63;;
57071;SDS011;42956;51.366;11.298;2023-05-29T04:26:29;6.93;;;3.90;;
57071;SDS011;42956;51.366;11.298;2023-05-29T04:29:02;13.00;;;4.32;;
57071;SDS011;42956;51.366;11.298;2023-05-29T04:31:32;6.90;;;4.07;;
57071;SDS011;42956;51.366;11.298;2023-05-29T04:34:03;8.45;;;4.57;;
57071;SDS011;42956;51.366;11.298;2023-05-29T04:36:34;11.52;;;4.03;;
57071;SDS011;42956;51.366;11.298;2023-05-29T04:39:06;7.55;;;4.47;;
57071;SDS011;42956;51.366;11.298;2023-05-29T04:41:35;10.30;;;3.97;;
57071;SDS011;42956;51.366;11.298;2023-05-29T04:44:10;7.45;;;3.65;;
57071;SDS011;42956;51.366;11.298;2023-05-29T04:46:40;8.55;;;3.80;;
57071;SDS011;42956;51.366;11.298;2023-05-29T04:49:11;9.13;;;4.43;;
57071;SDS011;42956;51.366;11.298;2023-05-29T04:51:41;9.23;;;4.22;;
57071;SDS011;42956;51.366;11.298;2023-05-29T04:54:11;8.60;;;4.28;;
57071;SDS011;42956;51.366;11.298;2023-05-29T04:56:41;7.30;;;4.00;;
57071;SDS011;42956;51.366;11.298;2023-05-29T04:59:14;7.60;;;3.80;;
57071;SDS011;42956;51.366;11.298;2023-05-29T05:01:44;12.80;;;4.45;;
57071;SDS011;42956;51.366;11.298;2023-05-29T05:04:15;10.75;;;4.45;;
57071;SDS011;42956;51.366;11.298;2023-05-29T05:06:45;12.07;;;4.22;;
57071;SDS011;42956;51.366;11.298;2023-05-29T05:09:15;10.35;;;4.47;;
57071;SDS011;42956;51.366;11.298;2023-05-29T05:11:44;7.05;;;4.15;;
57071;SDS011;42956;51.366;11.298;2023-05-29T05:14:17;14.48;;;4.43;;
57071;SDS011;42956;51.366;11.298;2023-05-29T05:16:47;6.53;;;4.47;;
57071;SDS011;42956;51.366;11.298;2023-05-29T05:19:17;9.73;;;3.85;;
57071;SDS011;42956;51.366;11.298;2023-05-29T05:21:47;10.82;;;5.35;;
57071;SDS011;42956;51.366;11.298;2023-05-29T05:24:18;9.88;;;4.65;;
57071;SDS011;42956;51.366;11.298;2023-05-29T05:26:48;15.60;;;4.13;;
57071;SDS011;42956;51.366;11.298;2023-05-29T05:29:21;14.73;;;4.90;;
57071;SDS011;42956;51.366;11.298;2023-05-29T05:31:53;8.85;;;4.10;;
57071;SDS011;42956;51.366;11.298;2023-05-29T05:34:23;10.25;;;4.43;;
57071;SDS011;42956;51.366;11.298;2023-05-29T05:36:53;8.65;;;4.15;;
57071;SDS011;42956;51.366;11.298;2023-05-29T05:39:23;12.05;;;3.90;;
57071;SDS011;42956;51.366;11.298;2023-05-29T05:41:53;9.27;;;3.90;;
57071;SDS011;42956;51.366;11.298;2023-05-29T05:44:26;12.02;;;5.07;;
57071;SDS011;42956;51.366;11.298;2023-05-29T05:46:55;11.20;;;4.15;;
57071;SDS011;42956;51.366;11.298;2023-05-29T05:49:26;8.27;;;4.03;;
57071;SDS011;42956;51.366;11.298;2023-05-29T05:51:55;19.48;;;4.50;;
57071;SDS011;42956;51.366;11.298;2023-05-29T05:54:25;8.98;;;4.28;;
57071;SDS011;42956;51.366;11.298;2023-05-29T05:56:55;10.43;;;4.28;;
57071;SDS011;42956;51.366;11.298;2023-05-29T05:59:28;7.93;;;3.83;;
57071;SDS011;42956;51.366;11.298;2023-05-29T06:01:58;8.30;;;3.90;;
57071;SDS011;42956;51.366;11.298;2023-05-29T06:04:28;16.95;;;4.68;;
57071;SDS011;42956;51.366;11.298;2023-05-29T06:06:59;11.85;;;4.50;;
57071;SDS011;42956;51.366;11.298;2023-05-29T06:09:28;8.00;;;4.18;;
57071;SDS011;42956;51.366;11.298;2023-05-29T06:11:59;9.98;;;4.38;;
57071;SDS011;42956;51.366;11.298;2023-05-29T06:14:31;7.65;;;3.70;;
57071;SDS011;42956;51.366;11.298;2023-05-29T06:17:01;7.90;;;4.25;;
57071;SDS011;42956;51.366;11.298;2023-05-29T06:19:31;6.38;;;4.00;;
57071;SDS011;42956;51.366;11.298;2023-05-29T06:22:01;10.52;;;4.45;;
57071;SDS011;42956;51.366;11.298;2023-05-29T06:24:30;9.60;;;4.75;;
57071;SDS011;42956;51.366;11.298;2023-05-29T06:27:00;9.95;;;4.25;;
57071;SDS011;42956;51.366;11.298;2023-05-29T06:29:33;9.90;;;4.40;;
57071;SDS011;42956;51.366;11.298;2023-05-29T06:32:04;10.30;;;4.63;;
57071;SDS011;42956;51.366;11.298;2023-05-29T06:34:34;9.93;;;4.80;;
57071;SDS011;42956;51.366;11.298;2023-05-29T06:37:04;13.43;;;4.18;;
57071;SDS011;42956;51.366;11.298;2023-05-29T06:39:33;9.20;;;3.63;;
57071;SDS011;42956;51.366;11.298;2023-05-29T06:42:03;9.35;;;3.83;;
57071;SDS011;42956;51.366;11.298;2023-05-29T06:44:36;10.23;;;3.47;;
57071;SDS011;42956;51.366;11.298;2023-05-29T06:47:06;9.90;;;3.75;;
57071;SDS011;42956;51.366;11.298;2023-05-29T06:49:36;10.18;;;4.10;;
57071;SDS011;42956;51.366;11.298;2023-05-29T06:52:06;7.47;;;3.83;;
57071;SDS011;42956;51.366;11.298;2023-05-29T06:54:35;10.88;;;4.25;;
57071;SDS011;42956;51.366;11.298;2023-05-29T06:57:05;8.82;;;4.28;;
57071;SDS011;42956;51.366;11.298;2023-05-29T06:59:39;11.20;;;4.38;;
57071;SDS011;42956;51.366;11.298;2023-05-29T07:02:09;9.48;;;3.88;;
57071;SDS011;42956;51.366;11.298;2023-05-29T07:04:39;11.63;;;5.13;;
57071;SDS011;42956;51.366;11.298;2023-05-29T07:07:09;6.03;;;3.63;;
57071;SDS011;42956;51.366;11.298;2023-05-29T07:09:39;10.18;;;3.95;;
57071;SDS011;42956;51.366;11.298;2023-05-29T07:12:09;11.85;;;4.45;;
57071;SDS011;42956;51.366;11.298;2023-05-29T07:14:44;6.97;;;4.22;;
57071;SDS011;42956;51.366;11.298;2023-05-29T07:17:15;6.63;;;3.55;;
57071;SDS011;42956;51.366;11.298;2023-05-29T07:19:45;7.63;;;4.00;;
57071;SDS011;42956;51.366;11.298;2023-05-29T07:22:16;6.57;;;3.67;;
57071;SDS011;42956;51.366;11.298;2023-05-29T07:24:46;4.47;;;3.15;;
57071;SDS011;42956;51.366;11.298;2023-05-29T07:27:16;11.35;;;4.00;;
57071;SDS011;42956;51.366;11.298;2023-05-29T07:29:48;10.68;;;3.97;;
57071;SDS011;42956;51.366;11.298;2023-05-29T07:32:18;13.32;;;4.47;;
57071;SDS011;42956;51.366;11.298;2023-05-29T07:34:48;7.70;;;3.85;;
57071;SDS011;42956;51.366;11.298;2023-05-29T07:37:19;10.25;;;3.58;;
57071;SDS011;42956;51.366;11.298;2023-05-29T07:39:49;7.82;;;3.95;;
57071;SDS011;42956;51.366;11.298;2023-05-29T07:42:19;9.90;;;4.13;;
57071;SDS011;42956;51.366;11.298;2023-05-29T07:44:51;7.18;;;3.63;;
57071;SDS011;42956;51.366;11.298;2023-05-29T07:47:21;6.93;;;4.03;;
57071;SDS011;42956;51.366;11.298;2023-05-29T07:49:51;7.72;;;3.65;;
57071;SDS011;42956;51.366;11.298;2023-05-29T07:55:19;6.38;;;3.90;;
57071;SDS011;42956;51.366;11.298;2023-05-29T07:57:49;7.00;;;3.55;;
57071;SDS011;42956;51.366;11.298;2023-05-29T08:00:22;8.63;;;4.18;;
57071;SDS011;42956;51.366;11.298;2023-05-29T08:02:53;9.13;;;3.78;;
57071;SDS011;42956;51.366;11.298;2023-05-29T08:05:24;7.82;;;3.97;;
57071;SDS011;42956;51.366;11.298;2023-05-29T08:07:54;9.25;;;3.65;;
57071;SDS011;42956;51.366;11.298;2023-05-29T08:10:25;8.98;;;4.10;;
57071;SDS011;42956;51.366;11.298;2023-05-29T08:12:55;5.63;;;3.40;;
57071;SDS011;42956;51.366;11.298;2023-05-29T08:15:28;6.32;;;3.40;;
57071;SDS011;42956;51.366;11.298;2023-05-29T08:17:58;5.53;;;3.40;;
57071;SDS011;42956;51.366;11.298;2023-05-29T08:20:28;10.32;;;3.83;;
57071;SDS011;42956;51.366;11.298;2023-05-29T08:22:58;12.02;;;3.85;;
57071;SDS011;42956;51.366;11.298;2023-05-29T08:25:28;12.52;;;4.38;;
57071;SDS011;42956;51.366;11.298;2023-05-29T08:27:58;5.55;;;3.03;;
57071;SDS011;42956;51.366;11.298;2023-05-29T08:30:31;6.18;;;3.17;;
57071;SDS011;42956;51.366;11.298;2023-05-29T08:33:01;9.50;;;3.30;;
57071;SDS011;42956;51.366;11.298;2023-05-29T08:35:31;6.32;;;3.38;;
57071;SDS011;42956;51.366;11.298;2023-05-29T08:38:01;8.95;;;3.45;;
57071;SDS011;42956;51.366;11.298;2023-05-29T08:40:31;9.45;;;3.72;;
57071;SDS011;42956;51.366;11.298;2023-05-29T08:43:02;6.40;;;3.25;;
57071;SDS011;42956;51.366;11.298;2023-05-29T08:45:35;8.18;;;3.50;;
57071;SDS011;42956;51.366;11.298;2023-05-29T08:48:09;11.32;;;3.88;;
57071;SDS011;42956;51.366;11.298;2023-05-29T08:50:40;9.27;;;3.35;;
57071;SDS011;42956;51.366;11.298;2023-05-29T08:53:13;7.43;;;3.47;;
57071;SDS011;42956;51.366;11.298;2023-05-29T08:55:43;9.43;;;3.60;;
57071;SDS011;42956;51.366;11.298;2023-05-29T08:58:14;7.05;;;3.47;;
57071;SDS011;42956;51.366;11.298;2023-05-29T09:00:49;3.97;;;3.00;;
57071;SDS011;42956;51.366;11.298;2023-05-29T09:03:23;6.85;;;3.40;;
57071;SDS011;42956;51.366;11.298;2023-05-29T09:09:21;8.30;;;3.55;;
57071;SDS011;42956;51.366;11.298;2023-05-29T09:12:00;7.80;;;3.90;;
57071;SDS011;42956;51.366;11.298;2023-05-29T09:14:34;7.40;;;3.33;;
57071;SDS011;42956;51.366;11.298;2023-05-29T09:17:08;8.18;;;3.47;;
57071;SDS011;42956;51.366;11.298;2023-05-29T09:19:38;9.48;;;3.72;;
57071;SDS011;42956;51.366;11.298;2023-05-29T09:22:09;5.95;;;3.22;;
57071;SDS011;42956;51.366;11.298;2023-05-29T09:24:42;6.18;;;3.30;;
57071;SDS011;42956;51.366;11.298;2023-05-29T09:27:12;6.55;;;2.95;;
57071;SDS011;42956;51.366;11.298;2023-05-29T09:29:43;7.13;;;3.15;;
57071;SDS011;42956;51.366;11.298;2023-05-29T09:32:16;7.13;;;3.70;;
57071;SDS011;42956;51.366;11.298;2023-05-29T09:34:46;6.05;;;3.42;;
57071;SDS011;42956;51.366;11.298;2023-05-29T09:37:16;7.57;;;3.28;;
57071;SDS011;42956;51.366;11.298;2023-05-29T09:39:50;8.77;;;2.83;;
57071;SDS011;42956;51.366;11.298;2023-05-29T09:42:20;7.00;;;3.42;;
57071;SDS011;42956;51.366;11.298;2023-05-29T09:44:52;7.20;;;3.78;;
57071;SDS011;42956;51.366;11.298;2023-05-29T09:47:24;5.30;;;2.65;;
57071;SDS011;42956;51.366;11.298;2023-05-29T09:49:54;4.35;;;2.78;;
57071;SDS011;42956;51.366;11.298;2023-05-29T09:52:25;5.47;;;2.75;;
57071;SDS011;42956;51.366;11.298;2023-05-29T09:54:56;5.15;;;3.30;;
57071;SDS011;42956;51.366;11.298;2023-05-29T09:57:27;8.40;;;3.30;;
57071;SDS011;42956;51.366;11.298;2023-05-29T09:59:56;6.22;;;2.90;;
57071;SDS011;42956;51.366;11.298;2023-05-29T10:02:30;5.82;;;3.20;;
57071;SDS011;42956;51.366;11.298;2023-05-29T10:05:00;7.25;;;3.83;;
57071;SDS011;42956;51.366;11.298;2023-05-29T10:07:31;7.47;;;2.95;;
57071;SDS011;42956;51.366;11.298;2023-05-29T10:10:02;7.13;;;3.17;;
57071;SDS011;42956;51.366;11.298;2023-05-29T10:12:38;6.05;;;3.10;;
57071;SDS011;42956;51.366;11.298;2023-05-29T10:21:24;6.38;;;3.20;;
57071;SDS011;42956;51.366;11.298;2023-05-29T10:23:56;5.80;;;3.13;;
57071;SDS011;42956;51.366;11.298;2023-05-29T10:26:27;7.32;;;3.40;;
57071;SDS011;42956;51.366;11.298;2023-05-29T10:29:02;8.02;;;3.13;;
57071;SDS011;42956;51.366;11.298;2023-05-29T10:31:33;5.97;;;3.22;;
57071;SDS011;42956;51.366;11.298;2023-05-29T10:34:12;5.30;;;3.13;;
57071;SDS011;42956;51.366;11.298;2023-05-29T10:36:49;5.90;;;3.17;;
57071;SDS011;42956;51.366;11.298;2023-05-29T10:39:22;7.03;;;3.10;;
57071;SDS011;42956;51.366;11.298;2023-05-29T10:41:51;5.25;;;2.78;;
57071;SDS011;42956;51.366;11.298;2023-05-29T10:44:37;4.63;;;3.15;;
57071;SDS011;42956;51.366;11.298;2023-05-29T10:47:10;4.88;;;2.97;;
57071;SDS011;42956;51.366;11.298;2023-05-29T10:49:48;7.13;;;2.97;;
57071;SDS011;42956;51.366;11.298;2023-05-29T10:52:21;5.65;;;3.00;;
57071;SDS011;42956;51.366;11.298;2023-05-29T10:55:17;10.55;;;3.33;;
57071;SDS011;42956;51.366;11.298;2023-05-29T11:00:19;5.05;;;3.08;;
57071;SDS011;42956;51.366;11.298;2023-05-29T11:05:22;8.07;;;3.65;;
57071;SDS011;42956;51.366;11.298;2023-05-29T11:07:57;4.75;;;3.00;;
57071;SDS011;42956;51.366;11.298;2023-05-29T11:10:44;7.00;;;2.72;;
57071;SDS011;42956;51.366;11.298;2023-05-29T11:13:25;5.68;;;3.03;;
57071;SDS011;42956;51.366;11.298;2023-05-29T11:18:30;4.28;;;2.38;;
57071;SDS011;42956;51.366;11.298;2023-05-29T11:21:01;9.93;;;3.58;;
57071;SDS011;42956;51.366;11.298;2023-05-29T11:26:05;5.97;;;3.25;;
57071;SDS011;42956;51.366;11.298;2023-05-29T11:28:35;7.50;;;3.08;;
57071;SDS011;42956;51.366;11.298;2023-05-29T11:31:07;9.57;;;3.55;;
57071;SDS011;42956;51.366;11.298;2023-05-29T11:33:38;5.57;;;2.80;;
57071;SDS011;42956;51.366;11.298;2023-05-29T11:36:09;5.38;;;3.13;;
57071;SDS011;42956;51.366;11.298;2023-05-29T11:38:39;7.32;;;3.08;;
57071;SDS011;42956;51.366;11.298;2023-05-29T11:41:12;8.63;;;3.03;;
57071;SDS011;42956;51.366;11.298;2023-05-29T11:43:42;7.32;;;3.05;;
57071;SDS011;42956;51.366;11.298;2023-05-29T11:46:16;6.30;;;3.33;;
57071;SDS011;42956;51.366;11.298;2023-05-29T11:48:47;6.72;;;3.10;;
57071;SDS011;42956;51.366;11.298;2023-05-29T11:51:17;5.25;;;2.90;;
57071;SDS011;42956;51.366;11.298;2023-05-29T11:53:47;5.03;;;3.13;;
57071;SDS011;42956;51.366;11.298;2023-05-29T11:56:22;6.05;;;3.50;;
57071;SDS011;42956;51.366;11.298;2023-05-29T11:58:52;7.25;;;3.00;;
57071;SDS011;42956;51.366;11.298;2023-05-29T12:01:27;5.70;;;3.30;;
57071;SDS011;42956;51.366;11.298;2023-05-29T12:03:57;5.88;;;3.42;;
57071;SDS011;42956;51.366;11.298;2023-05-29T12:06:30;7.93;;;3.05;;
57071;SDS011;42956;51.366;11.298;2023-05-29T12:09:00;8.30;;;3.20;;
57071;SDS011;42956;51.366;11.298;2023-05-29T12:11:34;10.80;;;3.92;;
57071;SDS011;42956;51.366;11.298;2023-05-29T12:14:04;8.48;;;3.30;;
57071;SDS011;42956;51.366;11.298;2023-05-29T12:16:34;6.70;;;3.08;;
57071;SDS011;42956;51.366;11.298;2023-05-29T12:19:04;6.13;;;2.92;;
57071;SDS011;42956;51.366;11.298;2023-05-29T12:21:34;5.35;;;3.45;;
57071;SDS011;42956;51.366;11.298;2023-05-29T12:24:04;6.55;;;3.17;;
57071;SDS011;42956;51.366;11.298;2023-05-29T12:26:44;6.45;;;3.55;;
57071;SDS011;42956;51.366;11.298;2023-05-29T12:29:14;6.80;;;3.47;;
57071;SDS011;42956;51.366;11.298;2023-05-29T12:31:44;8.75;;;3.47;;
57071;SDS011;42956;51.366;11.298;2023-05-29T12:34:14;8.07;;;3.88;;
57071;SDS011;42956;51.366;11.298;2023-05-29T12:36:47;7.10;;;3.15;;
57071;SDS011;42956;51.366;11.298;2023-05-29T12:39:17;6.20;;;3.10;;
57071;SDS011;42956;51.366;11.298;2023-05-29T12:41:50;11.23;;;3.65;;
57071;SDS011;42956;51.366;11.298;2023-05-29T12:44:23;6.38;;;3.38;;
57071;SDS011;42956;51.366;11.298;2023-05-29T12:46:56;7.20;;;3.10;;
57071;SDS011;42956;51.366;11.298;2023-05-29T12:49:26;5.70;;;2.50;;
57071;SDS011;42956;51.366;11.298;2023-05-29T12:52:04;4.80;;;3.30;;
57071;SDS011;42956;51.366;11.298;2023-05-29T12:54:34;10.05;;;3.50;;
57071;SDS011;42956;51.366;11.298;2023-05-29T12:57:08;6.07;;;3.30;;
57071;SDS011;42956;51.366;11.298;2023-05-29T12:59:40;6.15;;;3.30;;
57071;SDS011;42956;51.366;11.298;2023-05-29T13:02:10;8.15;;;3.40;;
57071;SDS011;42956;51.366;11.298;2023-05-29T13:04:40;7.28;;;3.45;;
57071;SDS011;42956;51.366;11.298;2023-05-29T13:07:10;5.28;;;3.67;;
57071;SDS011;42956;51.366;11.298;2023-05-29T13:09:40;6.63;;;3.97;;
57071;SDS011;42956;51.366;11.298;2023-05-29T13:12:13;10.75;;;3.35;;
57071;SDS011;42956;51.366;11.298;2023-05-29T13:14:43;6.38;;;3.40;;
57071;SDS011;42956;51.366;11.298;2023-05-29T13:17:13;6.82;;;3.47;;
57071;SDS011;42956;51.366;11.298;2023-05-29T13:19:42;7.95;;;3.42;;
57071;SDS011;42956;51.366;11.298;2023-05-29T13:22:13;5.53;;;3.47;;
57071;SDS011;42956;51.366;11.298;2023-05-29T13:24:43;9.77;;;3.45;;
57071;SDS011;42956;51.366;11.298;2023-05-29T13:27:15;8.90;;;2.72;;
57071;SDS011;42956;51.366;11.298;2023-05-29T13:29:45;8.40;;;3.58;;
57071;SDS011;42956;51.366;11.298;2023-05-29T13:32:15;6.80;;;3.20;;
57071;SDS011;42956;51.366;11.298;2023-05-29T13:34:45;5.25;;;3.17;;
57071;SDS011;42956;51.366;11.298;2023-05-29T13:37:15;7.10;;;3.42;;
57071;SDS011;42956;51.366;11.298;2023-05-29T13:39:45;6.10;;;3.47;;
57071;SDS011;42956;51.366;11.298;2023-05-29T13:42:18;8.63;;;3.33;;
57071;SDS011;42956;51.366;11.298;2023-05-29T13:44:48;7.43;;;3.47;;
57071;SDS011;42956;51.366;11.298;2023-05-29T13:47:18;5.57;;;3.35;;
57071;SDS011;42956;51.366;11.298;2023-05-29T13:49:48;8.25;;;3.50;;
57071;SDS011;42956;51.366;11.298;2023-05-29T13:52:18;7.32;;;3.80;;
57071;SDS011;42956;51.366;11.298;2023-05-29T13:54:48;6.45;;;3.13;;
57071;SDS011;42956;51.366;11.298;2023-05-29T13:57:21;8.25;;;3.17;;
57071;SDS011;42956;51.366;11.298;2023-05-29T13:59:51;5.95;;;3.70;;
57071;SDS011;42956;51.366;11.298;2023-05-29T14:02:20;6.82;;;3.25;;
57071;SDS011;42956;51.366;11.298;2023-05-29T14:04:52;7.07;;;3.30;;
57071;SDS011;42956;51.366;11.298;2023-05-29T14:07:22;8.52;;;3.92;;
57071;SDS011;42956;51.366;11.298;2023-05-29T14:09:52;5.32;;;2.97;;
57071;SDS011;42956;51.366;11.298;2023-05-29T14:12:24;6.70;;;3.53;;
57071;SDS011;42956;51.366;11.298;2023-05-29T14:14:55;5.95;;;3.13;;
57071;SDS011;42956;51.366;11.298;2023-05-29T14:17:25;9.50;;;3.58;;
57071;SDS011;42956;51.366;11.298;2023-05-29T14:19:55;5.85;;;2.80;;
57071;SDS011;42956;51.366;11.298;2023-05-29T14:22:25;5.97;;;3.13;;
57071;SDS011;42956;51.366;11.298;2023-05-29T14:24:55;7.35;;;3.30;;
57071;SDS011;42956;51.366;11.298;2023-05-29T14:27:28;5.45;;;3.08;;
57071;SDS011;42956;51.366;11.298;2023-05-29T14:29:58;11.52;;;3.72;;
57071;SDS011;42956;51.366;11.298;2023-05-29T14:32:28;7.22;;;3.65;;
57071;SDS011;42956;51.366;11.298;2023-05-29T14:34:58;8.85;;;3.47;;
57071;SDS011;42956;51.366;11.298;2023-05-29T14:37:28;7.45;;;3.78;;
57071;SDS011;42956;51.366;11.298;2023-05-29T14:39:58;7.47;;;3.35;;
57071;SDS011;42956;51.366;11.298;2023-05-29T14:42:31;7.28;;;3.53;;
57071;SDS011;42956;51.366;11.298;2023-05-29T14:45:01;6.78;;;3.55;;
57071;SDS011;42956;51.366;11.298;2023-05-29T14:47:31;8.52;;;3.17;;
57071;SDS011;42956;51.366;11.298;2023-05-29T14:50:01;7.22;;;3.40;;
57071;SDS011;42956;51.366;11.298;2023-05-29T14:52:31;7.40;;;3.20;;
57071;SDS011;42956;51.366;11.298;2023-05-29T14:55:01;7.05;;;3.60;;
57071;SDS011;42956;51.366;11.298;2023-05-29T14:57:34;6.75;;;3.22;;
57071;SDS011;42956;51.366;11.298;2023-05-29T15:00:05;8.30;;;3.17;;
57071;SDS011;42956;51.366;11.298;2023-05-29T15:02:35;7.03;;;3.42;;
57071;SDS011;42956;51.366;11.298;2023-05-29T15:05:07;5.97;;;3.30;;
57071;SDS011;42956;51.366;11.298;2023-05-29T15:07:37;6.05;;;3.00;;
57071;SDS011;42956;51.366;11.298;2023-05-29T15:10:07;7.60;;;3.33;;
57071;SDS011;42956;51.366;11.298;2023-05-29T15:12:39;10.23;;;3.72;;
57071;SDS011;42956;51.366;11.298;2023-05-29T15:15:12;12.00;;;3.53;;
57071;SDS011;42956;51.366;11.298;2023-05-29T15:17:42;5.22;;;3.65;;
57071;SDS011;42956;51.366;11.298;2023-05-29T15:20:13;5.57;;;3.00;;